createdAt,value
2018-06-27T00:00:54.624Z,15.47
2018-06-27T00:03:23.267Z,14.97
2018-06-27T00:05:51.909Z,14.57
2018-06-27T00:08:36.842Z,15.87
2018-06-27T00:11:05.568Z,14.47
2018-06-27T00:13:34.174Z,14.47
2018-06-27T00:16:02.815Z,14.53
2018-06-27T00:18:31.540Z,14.23
2018-06-27T00:21:00.143Z,13.37
2018-06-27T00:23:28.925Z,12.43
2018-06-27T00:25:57.569Z,12.63
2018-06-27T00:28:26.283Z,12.83
2018-06-27T00:30:54.850Z,12.33
2018-06-27T00:33:23.575Z,13.00
2018-06-27T00:35:52.130Z,13.40
2018-06-27T00:38:20.651Z,13.93
2018-06-27T00:40:49.282Z,14.90
2018-06-27T00:43:17.841Z,14.67
2018-06-27T00:45:46.368Z,14.73
2018-06-27T00:48:14.887Z,13.80
2018-06-27T00:50:43.438Z,15.17
2018-06-27T00:53:11.981Z,13.40
2018-06-27T00:55:40.537Z,13.80
2018-06-27T00:58:09.046Z,12.73
2018-06-27T01:00:37.656Z,12.40
2018-06-27T01:03:06.251Z,12.53
2018-06-27T01:05:34.945Z,12.30
2018-06-27T01:08:03.624Z,13.13
2018-06-27T01:10:32.368Z,13.47
2018-06-27T01:13:00.894Z,13.73
2018-06-27T01:15:29.484Z,13.53
2018-06-27T01:17:58.544Z,13.80
2018-06-27T01:20:27.544Z,12.93
2018-06-27T01:22:56.176Z,13.57
2018-06-27T01:25:24.778Z,13.60
2018-06-27T01:27:53.477Z,14.17
2018-06-27T01:30:22.166Z,13.67
2018-06-27T01:32:50.832Z,13.97
2018-06-27T01:35:19.473Z,13.77
2018-06-27T01:37:48.201Z,13.37
2018-06-27T01:40:17.003Z,14.63
2018-06-27T01:42:45.677Z,14.60
2018-06-27T01:45:14.772Z,14.23
2018-06-27T01:47:43.387Z,14.23
2018-06-27T01:50:12.019Z,13.97
2018-06-27T01:52:40.803Z,14.63
2018-06-27T01:55:09.457Z,14.27
2018-06-27T01:57:38.038Z,15.43
2018-06-27T02:00:07.480Z,15.17
2018-06-27T02:02:36.156Z,14.30
2018-06-27T02:05:04.847Z,14.70
2018-06-27T02:07:33.600Z,14.50
2018-06-27T02:10:02.113Z,13.60
2018-06-27T02:12:30.688Z,14.60
2018-06-27T02:14:59.218Z,13.70
2018-06-27T02:17:27.860Z,13.93
2018-06-27T02:19:56.429Z,13.80
2018-06-27T02:22:25.037Z,14.63
2018-06-27T02:24:53.593Z,14.50
2018-06-27T02:27:22.242Z,14.43
2018-06-27T02:29:50.807Z,14.03
2018-06-27T02:32:19.345Z,14.43
2018-06-27T02:34:47.953Z,15.77
2018-06-27T02:37:16.526Z,14.77
2018-06-27T02:39:45.122Z,14.57
2018-06-27T02:42:13.841Z,14.33
2018-06-27T02:44:42.597Z,14.33
2018-06-27T02:47:11.392Z,14.37
2018-06-27T02:49:40.273Z,14.53
2018-06-27T02:52:09.058Z,15.30
2018-06-27T02:54:37.740Z,14.50
2018-06-27T02:57:06.700Z,14.20
2018-06-27T02:59:35.519Z,14.27
2018-06-27T03:02:04.267Z,13.10
2018-06-27T03:04:32.912Z,14.83
2018-06-27T03:07:02.448Z,14.50
2018-06-27T03:09:30.999Z,14.60
2018-06-27T03:11:59.996Z,15.03
2018-06-27T03:14:28.779Z,15.93
2018-06-27T03:16:57.566Z,14.70
2018-06-27T03:19:26.120Z,15.47
2018-06-27T03:21:54.736Z,14.73
2018-06-27T03:24:23.264Z,15.23
2018-06-27T03:26:51.920Z,15.77
2018-06-27T03:29:20.589Z,14.80
2018-06-27T03:31:49.246Z,14.47
2018-06-27T03:34:17.853Z,15.57
2018-06-27T03:36:46.537Z,15.17
2018-06-27T03:39:15.232Z,14.33
2018-06-27T03:41:43.859Z,14.93
2018-06-27T03:44:12.503Z,14.57
2018-06-27T03:46:41.284Z,14.93
2018-06-27T03:49:09.937Z,14.47
2018-06-27T03:51:38.660Z,14.80
2018-06-27T03:54:08.110Z,13.90
2018-06-27T03:56:36.868Z,14.07
2018-06-27T03:59:05.680Z,14.50
2018-06-27T04:01:34.384Z,14.97
2018-06-27T04:04:03.032Z,15.33
2018-06-27T04:06:31.687Z,15.47
2018-06-27T04:09:00.438Z,14.97
2018-06-27T04:11:29.020Z,15.03
2018-06-27T04:13:57.593Z,14.80
2018-06-27T04:16:26.333Z,14.47
2018-06-27T04:18:54.913Z,14.53
2018-06-27T04:21:23.598Z,14.80
2018-06-27T04:23:52.373Z,14.50
2018-06-27T04:26:21.064Z,13.50
2018-06-27T04:28:49.822Z,13.53
2018-06-27T04:31:18.448Z,13.77
2018-06-27T04:33:47.241Z,13.93
2018-06-27T04:36:15.924Z,13.60
2018-06-27T04:38:44.815Z,13.80
2018-06-27T04:41:13.617Z,13.57
2018-06-27T04:43:42.384Z,13.00
2018-06-27T04:46:11.190Z,14.23
2018-06-27T04:48:39.852Z,13.53
2018-06-27T04:51:08.459Z,13.37
2018-06-27T04:53:37.158Z,13.73
2018-06-27T04:56:06.139Z,13.67
2018-06-27T04:58:34.736Z,14.13
2018-06-27T05:01:03.447Z,13.63
2018-06-27T05:03:32.344Z,13.93
2018-06-27T05:06:00.997Z,13.37
2018-06-27T05:08:29.823Z,14.57
2018-06-27T05:10:58.405Z,14.90
2018-06-27T05:13:27.268Z,15.50
2018-06-27T05:15:56.024Z,14.03
2018-06-27T05:18:24.769Z,14.10
2018-06-27T05:20:53.459Z,13.73
2018-06-27T05:23:25.189Z,13.73
2018-06-27T05:25:55.642Z,14.87
2018-06-27T05:28:24.812Z,13.80
2018-06-27T05:30:54.064Z,13.63
2018-06-27T05:33:23.643Z,13.60
2018-06-27T05:35:52.406Z,13.77
2018-06-27T05:38:21.126Z,13.20
2018-06-27T05:40:49.915Z,13.13
2018-06-27T05:43:21.085Z,13.23
2018-06-27T05:45:50.014Z,11.93
2018-06-27T05:48:22.262Z,13.60
2018-06-27T05:50:53.841Z,12.67
2018-06-27T05:53:23.996Z,12.07
2018-06-27T05:55:56.834Z,12.27
2018-06-27T05:58:32.925Z,10.97
2018-06-27T06:01:02.216Z,11.47
2018-06-27T06:03:32.702Z,12.13
2018-06-27T06:06:01.847Z,11.10
2018-06-27T06:08:32.291Z,9.93
2018-06-27T06:11:01.031Z,11.67
2018-06-27T06:13:29.894Z,9.20
2018-06-27T06:15:58.800Z,9.33
2018-06-27T06:18:27.575Z,9.00
2018-06-27T06:23:37.822Z,8.93
2018-06-27T06:26:06.653Z,9.27
2018-06-27T06:31:09.747Z,9.70
2018-06-27T06:33:48.910Z,10.53
2018-06-27T06:36:26.844Z,9.77
2018-06-27T06:39:00.738Z,9.73
2018-06-27T06:41:39.571Z,9.80
2018-06-27T06:44:16.979Z,8.93
2018-06-27T06:46:47.342Z,8.40
2018-06-27T06:49:17.712Z,8.27
2018-06-27T06:51:51.393Z,8.73
2018-06-27T06:54:21.658Z,8.73
2018-06-27T06:56:50.935Z,8.93
2018-06-27T06:59:23.948Z,8.17
2018-06-27T07:01:53.758Z,7.33
2018-06-27T07:04:24.496Z,7.40
2018-06-27T07:06:53.356Z,8.07
2018-06-27T07:09:23.042Z,9.03
2018-06-27T07:11:54.135Z,8.10
2018-06-27T07:14:23.198Z,7.93
2018-06-27T07:16:54.935Z,8.57
2018-06-27T07:19:24.763Z,8.63
2018-06-27T07:21:57.495Z,8.67
2018-06-27T07:24:28.246Z,7.40
2018-06-27T07:35:00.589Z,8.13
2018-06-27T07:37:29.972Z,8.17
2018-06-27T07:40:07.007Z,9.83
2018-06-27T07:42:40.027Z,8.50
2018-06-27T07:45:09.275Z,8.50
2018-06-27T07:47:38.380Z,8.03
2018-06-27T07:50:07.407Z,7.63
2018-06-27T07:52:36.401Z,8.90
2018-06-27T07:55:05.326Z,10.27
2018-06-27T07:57:44.328Z,7.60
2018-06-27T08:00:16.411Z,8.70
2018-06-27T08:05:45.853Z,8.10
2018-06-27T08:08:33.906Z,6.17
2018-06-27T08:11:06.958Z,5.83
2018-06-27T08:13:36.839Z,5.00
2018-06-27T08:16:07.261Z,6.05
2018-06-27T08:18:42.294Z,5.62
2018-06-27T08:21:11.791Z,5.33
2018-06-27T08:23:41.878Z,6.30
2018-06-27T08:26:11.406Z,5.72
2018-06-27T08:28:41.033Z,6.28
2018-06-27T08:31:10.367Z,6.08
2018-06-27T08:33:39.632Z,6.60
2018-06-27T08:36:09.749Z,5.67
2018-06-27T08:38:40.070Z,5.62
2018-06-27T08:41:08.980Z,5.45
2018-06-27T08:43:38.003Z,5.35
2018-06-27T08:46:07.088Z,5.17
2018-06-27T08:48:36.112Z,4.78
2018-06-27T08:51:06.098Z,6.00
2018-06-27T08:53:35.281Z,5.05
2018-06-27T08:56:04.525Z,6.05
2018-06-27T08:58:33.555Z,6.08
2018-06-27T09:01:05.830Z,6.22
2018-06-27T09:03:34.551Z,5.53
2018-06-27T09:06:03.220Z,6.08
2018-06-27T09:08:31.881Z,5.95
2018-06-27T09:11:00.657Z,7.05
2018-06-27T09:13:29.245Z,6.40
2018-06-27T09:15:58.204Z,6.75
2018-06-27T09:18:28.510Z,6.40
2018-06-27T09:20:57.474Z,6.12
2018-06-27T09:23:26.458Z,6.87
2018-06-27T09:25:55.882Z,5.53
2018-06-27T09:28:26.066Z,6.35
2018-06-27T09:30:55.887Z,6.55
2018-06-27T09:33:25.217Z,6.20
2018-06-27T09:35:55.169Z,6.37
2018-06-27T09:38:26.986Z,8.18
2018-06-27T09:40:56.381Z,9.50
2018-06-27T09:43:29.269Z,6.90
2018-06-27T09:45:58.554Z,6.40
2018-06-27T09:48:27.939Z,6.05
2018-06-27T09:50:57.915Z,7.62
2018-06-27T09:53:27.672Z,8.05
2018-06-27T09:55:57.394Z,8.10
2018-06-27T09:58:27.819Z,7.67
2018-06-27T10:01:00.700Z,7.50
2018-06-27T10:03:31.060Z,6.85
2018-06-27T10:06:05.883Z,6.72
2018-06-27T10:08:35.042Z,5.62
2018-06-27T10:11:04.912Z,4.58
2018-06-27T10:13:34.387Z,5.50
2018-06-27T10:16:04.849Z,4.65
2018-06-27T10:18:33.636Z,5.72
2018-06-27T10:21:02.723Z,5.03
2018-06-27T10:23:32.544Z,4.62
2018-06-27T10:26:01.624Z,4.60
2018-06-27T10:28:32.723Z,5.05
2018-06-27T10:31:01.757Z,6.08
2018-06-27T10:33:30.986Z,5.22
2018-06-27T10:36:00.123Z,4.53
2018-06-27T10:38:29.210Z,3.45
2018-06-27T10:40:58.134Z,3.70
2018-06-27T10:43:27.292Z,4.42
2018-06-27T10:45:56.288Z,3.95
2018-06-27T10:48:25.508Z,4.10
2018-06-27T10:50:54.559Z,4.58
2018-06-27T10:53:23.801Z,4.17
2018-06-27T10:55:52.826Z,4.28
2018-06-27T10:58:22.997Z,3.70
2018-06-27T11:00:52.417Z,5.30
2018-06-27T11:03:21.145Z,3.92
2018-06-27T11:05:50.016Z,3.52
2018-06-27T11:08:18.999Z,3.92
2018-06-27T11:10:48.481Z,3.85
2018-06-27T11:13:17.590Z,4.10
2018-06-27T11:15:46.930Z,3.33
2018-06-27T11:18:15.623Z,3.10
2018-06-27T11:20:44.409Z,3.10
2018-06-27T11:23:13.406Z,3.08
2018-06-27T11:25:42.041Z,2.98
2018-06-27T11:28:12.182Z,2.90
2018-06-27T11:30:40.927Z,3.60
2018-06-27T11:33:09.809Z,3.10
2018-06-27T11:35:39.266Z,2.80
2018-06-27T11:38:07.947Z,2.58
2018-06-27T11:40:36.681Z,2.50
2018-06-27T11:43:05.402Z,2.20
2018-06-27T11:45:33.946Z,2.50
2018-06-27T11:48:03.289Z,2.65
2018-06-27T11:50:31.865Z,2.37
2018-06-27T11:53:00.421Z,2.33
2018-06-27T11:55:29.108Z,2.02
2018-06-27T11:57:57.745Z,2.30
2018-06-27T12:00:26.332Z,2.00
2018-06-27T12:02:54.925Z,2.17
2018-06-27T12:05:24.037Z,2.07
2018-06-27T12:07:52.683Z,2.20
2018-06-27T12:10:21.340Z,2.30
2018-06-27T12:12:50.100Z,2.10
2018-06-27T12:15:18.719Z,2.10
2018-06-27T12:17:47.882Z,2.63
2018-06-27T12:20:17.779Z,2.53
2018-06-27T12:22:52.064Z,2.80
2018-06-27T12:25:22.133Z,2.60
2018-06-27T12:27:53.226Z,3.10
2018-06-27T12:30:23.242Z,3.00
2018-06-27T12:36:02.441Z,4.40
2018-06-27T12:38:32.470Z,2.57
2018-06-27T12:41:07.453Z,3.13
2018-06-27T12:43:38.421Z,3.30
2018-06-27T12:46:09.450Z,3.10
2018-06-27T12:48:38.737Z,2.73
2018-06-27T12:51:07.580Z,4.03
2018-06-27T12:53:37.133Z,3.60
2018-06-27T12:56:06.671Z,3.50
2018-06-27T12:58:36.845Z,3.27
2018-06-27T13:01:06.452Z,3.43
2018-06-27T13:03:38.580Z,3.47
2018-06-27T13:06:07.405Z,3.77
2018-06-27T13:08:36.121Z,4.00
2018-06-27T13:11:05.003Z,3.80
2018-06-27T13:13:33.785Z,3.80
2018-06-27T13:16:02.752Z,3.43
2018-06-27T13:18:31.394Z,3.57
2018-06-27T13:21:00.049Z,3.40
2018-06-27T13:23:28.788Z,3.83
2018-06-27T13:25:57.492Z,3.90
2018-06-27T13:28:26.231Z,3.93
2018-06-27T13:30:55.000Z,3.40
2018-06-27T13:33:23.690Z,3.40
2018-06-27T13:35:52.539Z,3.30
2018-06-27T13:38:21.286Z,3.60
2018-06-27T13:40:50.410Z,3.93
2018-06-27T13:43:19.391Z,3.33
2018-06-27T13:45:48.556Z,3.87
2018-06-27T13:48:17.317Z,3.50
2018-06-27T13:50:46.224Z,2.90
2018-06-27T13:53:14.996Z,3.40
2018-06-27T13:55:44.634Z,3.20
2018-06-27T13:58:13.464Z,3.60
2018-06-27T14:00:42.665Z,3.03
2018-06-27T14:03:11.822Z,2.77
2018-06-27T14:05:40.936Z,3.00
2018-06-27T14:08:09.904Z,2.70
2018-06-27T14:10:38.673Z,2.60
2018-06-27T14:13:07.396Z,3.10
2018-06-27T14:15:36.048Z,3.00
2018-06-27T14:18:04.925Z,3.30
2018-06-27T14:20:33.829Z,3.13
2018-06-27T14:23:02.809Z,2.50
2018-06-27T14:25:31.704Z,2.33
2018-06-27T14:28:00.744Z,2.50
2018-06-27T14:30:29.636Z,2.70
2018-06-27T14:32:58.478Z,2.33
2018-06-27T14:35:27.236Z,2.40
2018-06-27T14:37:56.070Z,2.27
2018-06-27T14:40:24.763Z,2.13
2018-06-27T14:42:53.665Z,2.13
2018-06-27T14:45:22.559Z,1.97
2018-06-27T14:47:51.432Z,2.10
2018-06-27T14:50:20.483Z,1.60
2018-06-27T14:52:49.854Z,1.60
2018-06-27T14:55:18.954Z,1.93
2018-06-27T14:57:48.309Z,1.73
2018-06-27T15:00:17.229Z,1.90
2018-06-27T15:02:46.088Z,1.87
2018-06-27T15:05:15.137Z,2.33
2018-06-27T15:07:43.896Z,1.70
2018-06-27T15:10:12.937Z,1.70
2018-06-27T15:12:41.650Z,2.20
2018-06-27T15:15:10.692Z,1.80
2018-06-27T15:17:39.459Z,2.07
2018-06-27T15:20:08.324Z,1.90
2018-06-27T15:22:37.178Z,1.93
2018-06-27T15:25:06.055Z,2.33
2018-06-27T15:27:34.677Z,2.30
2018-06-27T15:30:03.402Z,2.07
2018-06-27T15:32:32.385Z,1.97
2018-06-27T15:35:00.972Z,2.03
2018-06-27T15:37:29.652Z,2.40
2018-06-27T15:39:58.301Z,2.13
2018-06-27T15:42:26.967Z,2.30
2018-06-27T15:44:55.792Z,2.13
2018-06-27T15:47:24.668Z,2.70
2018-06-27T15:49:53.594Z,2.20
2018-06-27T15:52:22.395Z,2.50
2018-06-27T15:54:51.097Z,2.40
2018-06-27T15:57:20.854Z,2.57
2018-06-27T15:59:56.588Z,2.83
2018-06-27T16:02:25.327Z,2.80
2018-06-27T16:04:54.441Z,2.97
2018-06-27T16:07:23.169Z,3.17
2018-06-27T16:09:52.240Z,2.60
2018-06-27T16:12:20.791Z,2.97
2018-06-27T16:14:49.443Z,2.90
2018-06-27T16:17:18.302Z,2.70
2018-06-27T16:19:46.779Z,3.00
2018-06-27T16:22:15.498Z,2.97
2018-06-27T16:24:44.338Z,2.67
2018-06-27T16:27:13.179Z,2.87
2018-06-27T16:29:41.956Z,2.63
2018-06-27T16:32:10.533Z,2.97
2018-06-27T16:34:39.559Z,2.90
2018-06-27T16:37:08.692Z,3.00
2018-06-27T16:39:37.640Z,2.80
2018-06-27T16:42:06.501Z,2.57
2018-06-27T16:44:36.536Z,2.40
2018-06-27T16:47:11.066Z,2.57
2018-06-27T16:49:40.722Z,2.80
2018-06-27T16:52:14.192Z,2.67
2018-06-27T16:54:42.841Z,2.30
2018-06-27T16:57:11.495Z,2.40
2018-06-27T16:59:40.378Z,2.33
2018-06-27T17:02:09.493Z,2.87
2018-06-27T17:04:38.438Z,2.30
2018-06-27T17:07:07.254Z,2.23
2018-06-27T17:09:38.502Z,2.30
2018-06-27T17:12:07.384Z,2.47
2018-06-27T17:14:35.984Z,2.20
2018-06-27T17:17:07.235Z,2.40
2018-06-27T17:19:36.333Z,23.87
2018-06-27T17:22:05.733Z,5.97
2018-06-27T17:24:35.896Z,2.17
2018-06-27T17:27:04.953Z,12.80
2018-06-27T17:29:39.137Z,2.23
2018-06-27T17:32:07.832Z,1.83
2018-06-27T17:34:36.729Z,3.40
2018-06-27T17:37:05.478Z,1.80
2018-06-27T17:39:34.173Z,1.93
2018-06-27T17:42:03.732Z,2.87
2018-06-27T17:44:32.313Z,1.80
2018-06-27T17:47:01.090Z,2.03
2018-06-27T17:49:29.847Z,1.90
2018-06-27T17:51:58.718Z,2.10
2018-06-27T17:54:27.406Z,1.57
2018-06-27T17:56:56.334Z,2.00
2018-06-27T17:59:25.067Z,1.80
2018-06-27T18:01:53.964Z,1.90
2018-06-27T18:04:22.728Z,1.80
2018-06-27T18:06:51.786Z,2.20
2018-06-27T18:09:21.110Z,1.80
2018-06-27T18:11:49.956Z,2.20
2018-06-27T18:14:19.641Z,2.00
2018-06-27T18:16:48.290Z,1.70
2018-06-27T18:19:16.976Z,1.90
2018-06-27T18:21:46.109Z,1.97
2018-06-27T18:24:14.822Z,2.00
2018-06-27T18:26:43.621Z,1.77
2018-06-27T18:29:13.248Z,1.80
2018-06-27T18:31:43.231Z,1.57
2018-06-27T18:34:15.988Z,2.37
2018-06-27T18:36:44.623Z,1.93
2018-06-27T18:39:13.765Z,1.70
2018-06-27T18:41:43.123Z,1.57
2018-06-27T18:44:11.811Z,1.90
2018-06-27T18:46:40.540Z,1.40
2018-06-27T18:49:09.167Z,1.70
2018-06-27T18:51:38.060Z,1.73
2018-06-27T18:54:07.254Z,1.70
2018-06-27T18:56:36.113Z,1.70
2018-06-27T18:59:05.131Z,1.70
2018-06-27T19:01:33.953Z,1.80
2018-06-27T19:04:03.031Z,1.73
2018-06-27T19:06:32.040Z,1.50
2018-06-27T19:09:00.965Z,1.90
2018-06-27T19:11:30.639Z,1.63
2018-06-27T19:14:00.041Z,1.73
2018-06-27T19:16:28.928Z,1.70
2018-06-27T19:18:57.948Z,1.67
2018-06-27T19:21:26.901Z,1.90
2018-06-27T19:23:56.068Z,1.73
2018-06-27T19:26:25.231Z,1.80
2018-06-27T19:28:54.428Z,2.50
2018-06-27T19:31:23.344Z,1.67
2018-06-27T19:33:52.767Z,2.10
2018-06-27T19:36:21.860Z,1.50
2018-06-27T19:38:50.874Z,1.97
2018-06-27T19:41:19.852Z,1.87
2018-06-27T19:43:48.981Z,1.60
2018-06-27T19:46:17.816Z,2.13
2018-06-27T19:48:46.613Z,1.90
2018-06-27T19:51:15.724Z,1.70
2018-06-27T19:53:44.448Z,1.70
2018-06-27T19:56:13.222Z,1.77
2018-06-27T19:58:41.945Z,2.00
2018-06-27T20:01:10.685Z,1.70
2018-06-27T20:03:39.467Z,2.10
2018-06-27T20:06:08.058Z,2.20
2018-06-27T20:08:36.930Z,2.57
2018-06-27T20:11:05.810Z,2.90
2018-06-27T20:13:35.044Z,2.00
2018-06-27T20:16:03.804Z,2.40
2018-06-27T20:18:32.415Z,2.23
2018-06-27T20:21:01.000Z,2.60
2018-06-27T20:23:29.662Z,2.70
2018-06-27T20:25:58.366Z,2.30
2018-06-27T20:28:27.094Z,2.40
2018-06-27T20:30:55.735Z,2.23
2018-06-27T20:33:24.331Z,2.37
2018-06-27T20:35:52.987Z,2.50
2018-06-27T20:38:21.711Z,2.27
2018-06-27T20:40:50.319Z,2.30
2018-06-27T20:43:18.933Z,2.33
2018-06-27T20:45:47.754Z,2.20
2018-06-27T20:48:16.339Z,2.10
2018-06-27T20:50:45.044Z,2.33
2018-06-27T20:53:13.710Z,2.40
2018-06-27T20:55:42.361Z,2.83
2018-06-27T20:58:10.993Z,2.50
2018-06-27T21:00:39.694Z,2.60
2018-06-27T21:03:08.235Z,2.90
2018-06-27T21:05:36.765Z,2.60
2018-06-27T21:08:05.434Z,2.60
2018-06-27T21:10:34.029Z,2.90
2018-06-27T21:13:02.719Z,2.60
2018-06-27T21:15:31.359Z,2.60
2018-06-27T21:17:59.912Z,2.33
2018-06-27T21:20:28.521Z,2.13
2018-06-27T21:22:57.331Z,2.53
2018-06-27T21:25:25.947Z,2.60
2018-06-27T21:27:54.563Z,2.47
2018-06-27T21:30:23.161Z,2.60
2018-06-27T21:32:51.780Z,2.50
2018-06-27T21:35:20.429Z,2.77
2018-06-27T21:37:49.047Z,2.33
2018-06-27T21:40:17.644Z,2.23
2018-06-27T21:42:46.302Z,2.73
2018-06-27T21:45:15.353Z,2.30
2018-06-27T21:47:44.071Z,2.50
2018-06-27T21:50:12.742Z,2.63
2018-06-27T21:52:41.272Z,2.43
2018-06-27T21:55:10.152Z,2.10
2018-06-27T21:57:38.749Z,2.60
2018-06-27T22:00:09.107Z,2.27
2018-06-27T22:02:37.688Z,2.60
2018-06-27T22:05:06.268Z,2.23
2018-06-27T22:07:35.032Z,2.40
2018-06-27T22:10:03.880Z,2.33
2018-06-27T22:12:32.432Z,3.03
2018-06-27T22:15:01.132Z,2.47
2018-06-27T22:17:29.777Z,2.50
2018-06-27T22:19:58.317Z,2.80
2018-06-27T22:22:26.895Z,2.70
2018-06-27T22:24:55.565Z,2.43
2018-06-27T22:27:24.141Z,2.70
2018-06-27T22:29:52.786Z,2.73
2018-06-27T22:32:21.606Z,2.70
2018-06-27T22:34:52.786Z,2.60
2018-06-27T22:37:22.445Z,2.73
2018-06-27T22:39:52.096Z,2.77
2018-06-27T22:42:20.740Z,3.30
2018-06-27T22:44:49.502Z,3.43
2018-06-27T22:47:18.022Z,3.20
2018-06-27T22:49:46.664Z,3.00
2018-06-27T22:52:15.353Z,3.30
2018-06-27T22:54:44.184Z,3.40
2018-06-27T22:57:13.054Z,3.43
2018-06-27T22:59:41.855Z,3.43
2018-06-27T23:02:10.675Z,3.53
2018-06-27T23:04:39.380Z,3.10
2018-06-27T23:07:08.011Z,3.90
2018-06-27T23:09:36.715Z,3.57
2018-06-27T23:12:05.444Z,3.30
2018-06-27T23:14:34.124Z,3.43
2018-06-27T23:17:02.844Z,3.97
2018-06-27T23:19:31.511Z,4.23
2018-06-27T23:22:00.170Z,3.90
2018-06-27T23:33:12.325Z,4.00
2018-06-27T23:35:41.097Z,4.27
2018-06-27T23:38:29.965Z,3.83
2018-06-27T23:40:58.645Z,3.80
2018-06-27T23:43:27.575Z,3.73
2018-06-27T23:45:56.365Z,3.13
2018-06-27T23:48:25.169Z,3.00
2018-06-27T23:50:53.855Z,2.83
2018-06-27T23:53:22.592Z,3.47
2018-06-27T23:55:51.216Z,3.47
2018-06-27T23:58:20.130Z,3.40
